Time;durP1;ratioP1;P1;durP2;ratioP2;P2;SDS_P1;SDS_P2;PMS_P1;PMS_P2;Temp;Humidity;BMP_temperature;BMP_pressure;BME280_temperature;BME280_humidity;BME280_pressure;Samples;Min_cycle;Max_cycle;Signal;HPM_P1;HPM_P2
2022/12/04 00:01:33;;;;;;;20.85;12.85;;;;;;;;;;5073055;28;20009;-67
2022/12/04 00:04:00;;;;;;;36.00;18.63;;;;;;;;;;5074026;28;20024;-66
2022/12/04 00:06:27;;;;;;;52.25;21.52;;;;;;;;;;5073615;28;20499;-66
2022/12/04 00:08:53;;;;;;;38.22;17.23;;;;;;;;;;5074039;28;20043;-66
2022/12/04 00:11:24;;;;;;;22.70;13.38;;;;;;;;;;5073879;28;20031;-66
2022/12/04 00:13:50;;;;;;;20.80;12.43;;;;;;;;;;5073987;28;20468;-66
2022/12/04 00:16:18;;;;;;;18.42;12.45;;;;;;;;;;5074171;28;20259;-66
2022/12/04 00:18:45;;;;;;;19.77;12.77;;;;;;;;;;5073983;28;20041;-66
2022/12/04 00:21:12;;;;;;;17.08;11.85;;;;;;;;;;5078631;28;20431;-66
2022/12/04 00:23:39;;;;;;;16.73;11.60;;;;;;;;;;5094060;28;20032;-66
2022/12/04 00:26:07;;;;;;;20.08;12.80;;;;;;;;;;5094376;28;20028;-66
2022/12/04 00:28:34;;;;;;;18.65;12.20;;;;;;;;;;5094006;28;20025;-66
2022/12/04 00:31:00;;;;;;;17.50;12.30;;;;;;;;;;5093677;28;20038;-66
2022/12/04 00:33:26;;;;;;;17.20;12.07;;;;;;;;;;5093996;28;20016;-66
2022/12/04 00:35:56;;;;;;;20.00;11.85;;;;;;;;;;5092058;28;20499;-66
2022/12/04 00:38:22;;;;;;;17.67;12.48;;;;;;;;;;5075556;28;20032;-66
2022/12/04 00:40:52;;;;;;;18.65;12.43;;;;;;;;;;5089337;28;20505;-66
2022/12/04 00:43:19;;;;;;;17.02;12.20;;;;;;;;;;5073139;28;20032;-66
2022/12/04 00:45:45;;;;;;;18.92;12.52;;;;;;;;;;5047281;28;20023;-66
2022/12/04 00:48:12;;;;;;;17.98;12.52;;;;;;;;;;5073360;28;20039;-66
2022/12/04 00:50:38;;;;;;;16.52;12.40;;;;;;;;;;5072805;28;20020;-66
2022/12/04 00:53:05;;;;;;;18.48;12.88;;;;;;;;;;5073126;28;20515;-67
2022/12/04 00:55:31;;;;;;;35.58;19.17;;;;;;;;;;5073299;28;20021;-66
2022/12/04 00:57:57;;;;;;;47.17;22.20;;;;;;;;;;5073261;28;20028;-66
2022/12/04 01:00:23;;;;;;;44.95;21.63;;;;;;;;;;5072959;28;20034;-67
2022/12/04 01:02:50;;;;;;;50.15;23.52;;;;;;;;;;5073038;28;20047;-66
2022/12/04 01:05:16;;;;;;;35.20;19.27;;;;;;;;;;5072586;28;20021;-66
2022/12/04 01:07:42;;;;;;;49.45;24.25;;;;;;;;;;5072932;28;20359;-67
2022/12/04 01:10:11;;;;;;;61.83;28.00;;;;;;;;;;5072591;28;20028;-66
2022/12/04 01:12:37;;;;;;;65.07;30.30;;;;;;;;;;5072467;28;20028;-66
2022/12/04 01:15:04;;;;;;;91.45;38.70;;;;;;;;;;5073097;28;20029;-66
2022/12/04 01:17:30;;;;;;;47.33;22.25;;;;;;;;;;5072639;28;20017;-66
2022/12/04 01:19:56;;;;;;;36.40;19.23;;;;;;;;;;5072219;28;20392;-67
2022/12/04 01:22:23;;;;;;;47.13;24.30;;;;;;;;;;5087934;28;20477;-66
2022/12/04 01:24:49;;;;;;;74.20;31.42;;;;;;;;;;5093039;28;20032;-66
2022/12/04 01:27:15;;;;;;;69.07;31.67;;;;;;;;;;5092865;28;20020;-66
2022/12/04 01:29:41;;;;;;;68.22;30.00;;;;;;;;;;5093039;28;20024;-66
2022/12/04 01:32:08;;;;;;;58.58;27.98;;;;;;;;;;5092658;28;20031;-66
2022/12/04 01:34:35;;;;;;;49.97;25.88;;;;;;;;;;5092399;28;20020;-66
2022/12/04 01:37:01;;;;;;;35.95;21.48;;;;;;;;;;5092655;28;20024;-67
2022/12/04 01:39:28;;;;;;;38.03;22.75;;;;;;;;;;5092442;28;20408;-66
2022/12/04 01:41:54;;;;;;;35.60;21.95;;;;;;;;;;5079390;28;20032;-67
2022/12/04 01:44:25;;;;;;;32.72;21.42;;;;;;;;;;5054653;28;20024;-67
2022/12/04 01:46:55;;;;;;;31.88;21.98;;;;;;;;;;5072435;28;20020;-66
2022/12/04 01:49:24;;;;;;;34.90;21.87;;;;;;;;;;5071956;28;20443;-66
2022/12/04 01:52:11;;;;;;;32.45;23.02;;;;;;;;;;5072560;28;20023;-66
2022/12/04 01:54:40;;;;;;;32.85;21.95;;;;;;;;;;5030133;28;20047;-66
2022/12/04 01:57:09;;;;;;;34.40;22.10;;;;;;;;;;5030211;28;20034;-66
2022/12/04 01:59:38;;;;;;;32.88;22.08;;;;;;;;;;5029976;28;20048;-67
2022/12/04 02:02:07;;;;;;;38.38;23.75;;;;;;;;;;5030329;28;20024;-66
2022/12/04 02:04:33;;;;;;;32.65;21.08;;;;;;;;;;5029503;28;20666;-66
2022/12/04 02:07:00;;;;;;;34.85;22.25;;;;;;;;;;5029999;28;20025;-67
2022/12/04 02:09:26;;;;;;;50.75;28.95;;;;;;;;;;5030075;28;20045;-67
2022/12/04 02:12:02;;;;;;;50.45;29.23;;;;;;;;;;5029618;28;20044;-66
2022/12/04 02:14:31;;;;;;;53.30;30.27;;;;;;;;;;5029735;28;20413;-67
2022/12/04 02:17:13;;;;;;;51.33;27.70;;;;;;;;;;5029706;28;20034;-66
2022/12/04 02:19:39;;;;;;;43.78;26.42;;;;;;;;;;5029686;28;20422;-66
2022/12/04 02:22:14;;;;;;;40.72;22.75;;;;;;;;;;5042484;28;20033;-66
2022/12/04 02:24:57;;;;;;;40.88;23.75;;;;;;;;;;5033497;28;20079;-67
2022/12/04 02:27:23;;;;;;;37.33;23.70;;;;;;;;;;5053938;28;20029;-66
2022/12/04 02:29:55;;;;;;;29.90;19.85;;;;;;;;;;5053609;28;20021;-66
2022/12/04 02:32:40;;;;;;;30.63;20.80;;;;;;;;;;5085969;28;20036;-66
2022/12/04 02:35:20;;;;;;;47.22;25.73;;;;;;;;;;5096297;28;20020;-66
2022/12/04 02:37:50;;;;;;;53.30;24.65;;;;;;;;;;5094679;28;20042;-66
2022/12/04 02:40:24;;;;;;;32.72;20.83;;;;;;;;;;5095944;28;20508;-67
2022/12/04 02:42:57;;;;;;;32.30;22.75;;;;;;;;;;5075992;28;20074;-66
2022/12/04 02:45:26;;;;;;;34.40;22.45;;;;;;;;;;5075739;28;20381;-66
2022/12/04 02:47:54;;;;;;;33.42;22.33;;;;;;;;;;5075081;28;20016;-66
2022/12/04 02:50:21;;;;;;;34.20;21.90;;;;;;;;;;5075482;28;20024;-66
2022/12/04 02:52:55;;;;;;;105.38;39.17;;;;;;;;;;5075328;28;20039;-66
2022/12/04 02:55:24;;;;;;;56.38;29.17;;;;;;;;;;5075336;28;20028;-66
2022/12/04 02:57:52;;;;;;;63.78;32.97;;;;;;;;;;5075265;28;20032;-65
2022/12/04 03:00:18;;;;;;;49.55;27.23;;;;;;;;;;5075060;28;20032;-65
2022/12/04 03:02:45;;;;;;;44.90;25.13;;;;;;;;;;5075180;28;20021;-65
2022/12/04 03:05:14;;;;;;;42.45;26.30;;;;;;;;;;5075562;28;20036;-65
2022/12/04 03:07:49;;;;;;;34.47;24.17;;;;;;;;;;5075198;28;20021;-66
2022/12/04 03:10:20;;;;;;;37.55;24.27;;;;;;;;;;5075178;28;20431;-66
2022/12/04 03:12:50;;;;;;;40.08;24.58;;;;;;;;;;5074983;28;20039;-66
2022/12/04 03:15:24;;;;;;;34.38;22.42;;;;;;;;;;5074547;28;20020;-67
2022/12/04 03:17:55;;;;;;;39.00;23.35;;;;;;;;;;5074944;28;20031;-66
2022/12/04 03:20:22;;;;;;;36.63;22.33;;;;;;;;;;5074893;28;20379;-66
2022/12/04 03:22:51;;;;;;;34.50;21.52;;;;;;;;;;5093729;28;20485;-67
2022/12/04 03:25:18;;;;;;;30.10;21.17;;;;;;;;;;5094982;28;20058;-66
2022/12/04 03:27:44;;;;;;;29.92;20.65;;;;;;;;;;5095161;28;20485;-66
2022/12/04 03:30:12;;;;;;;32.90;21.02;;;;;;;;;;5094881;28;20028;-66
2022/12/04 03:32:44;;;;;;;30.98;21.13;;;;;;;;;;5094690;28;20032;-67
2022/12/04 03:35:14;;;;;;;34.05;21.60;;;;;;;;;;5094931;28;20024;-66
2022/12/04 03:37:44;;;;;;;34.13;20.45;;;;;;;;;;5076814;28;20036;-66
2022/12/04 03:40:22;;;;;;;30.60;19.65;;;;;;;;;;5094654;28;20482;-66
2022/12/04 03:42:57;;;;;;;75.72;28.90;;;;;;;;;;5074580;28;20031;-65
2022/12/04 03:45:23;;;;;;;41.40;21.50;;;;;;;;;;5074379;28;20032;-66
2022/12/04 03:47:52;;;;;;;37.28;21.73;;;;;;;;;;5074526;28;20025;-66
2022/12/04 03:50:39;;;;;;;35.53;21.13;;;;;;;;;;5074528;28;20086;-65
2022/12/04 03:53:20;;;;;;;32.50;20.58;;;;;;;;;;5074283;28;20203;-66
2022/12/04 03:55:50;;;;;;;26.88;18.88;;;;;;;;;;5074288;28;20031;-66
2022/12/04 03:58:19;;;;;;;29.42;18.90;;;;;;;;;;5056365;28;20035;-65
2022/12/04 04:00:47;;;;;;;26.48;17.40;;;;;;;;;;5074519;28;20032;-67
2022/12/04 04:03:17;;;;;;;29.17;18.70;;;;;;;;;;5074184;28;20020;-66
2022/12/04 04:05:46;;;;;;;26.50;18.83;;;;;;;;;;5073942;28;20028;-66
2022/12/04 04:08:28;;;;;;;25.23;17.23;;;;;;;;;;5074114;28;20021;-66
2022/12/04 04:11:17;;;;;;;25.15;18.23;;;;;;;;;;5074114;28;20029;-66
2022/12/04 04:25:11;;;;;;;28.38;19.85;;;;;;;;;;5031772;28;20029;-66
2022/12/04 04:27:37;;;;;;;25.23;18.08;;;;;;;;;;5014927;28;20042;-67
2022/12/04 04:30:05;;;;;;;23.35;16.50;;;;;;;;;;5031550;28;20702;-66
2022/12/04 04:32:34;;;;;;;21.58;15.77;;;;;;;;;;5031695;28;20091;-67
2022/12/04 04:35:09;;;;;;;19.88;14.25;;;;;;;;;;5031698;28;20494;-66
2022/12/04 04:37:41;;;;;;;22.50;16.13;;;;;;;;;;5031555;28;20449;-66
2022/12/04 04:40:18;;;;;;;22.02;15.80;;;;;;;;;;5019337;28;20056;-66
2022/12/04 04:42:49;;;;;;;22.08;15.57;;;;;;;;;;5011126;28;20032;-66
2022/12/04 04:45:20;;;;;;;22.73;15.90;;;;;;;;;;5011684;28;20034;-66
2022/12/04 04:48:06;;;;;;;21.88;15.93;;;;;;;;;;5010790;28;20022;-67
2022/12/04 04:50:33;;;;;;;23.40;15.88;;;;;;;;;;5011296;28;20523;-66
2022/12/04 04:53:03;;;;;;;19.75;14.85;;;;;;;;;;5011276;28;20434;-66
2022/12/04 04:55:33;;;;;;;23.95;15.68;;;;;;;;;;5011342;28;20022;-66
2022/12/04 04:58:10;;;;;;;23.80;15.68;;;;;;;;;;5012921;28;20034;-66
2022/12/04 05:00:37;;;;;;;25.05;15.43;;;;;;;;;;5053155;28;20024;-66
2022/12/04 05:03:03;;;;;;;22.23;15.02;;;;;;;;;;5053070;28;20079;-66
2022/12/04 05:05:29;;;;;;;18.38;13.13;;;;;;;;;;5052988;28;20021;-66
2022/12/04 05:07:56;;;;;;;17.52;12.60;;;;;;;;;;5052735;28;20427;-66
2022/12/04 05:10:22;;;;;;;16.92;11.48;;;;;;;;;;5052762;28;20095;-66
2022/12/04 05:12:48;;;;;;;14.25;10.48;;;;;;;;;;5052278;28;20390;-66
2022/12/04 05:15:15;;;;;;;18.33;11.20;;;;;;;;;;5053035;28;20021;-67
2022/12/04 05:17:41;;;;;;;17.88;11.32;;;;;;;;;;5052856;28;20036;-66
2022/12/04 05:20:07;;;;;;;16.90;11.20;;;;;;;;;;5052485;28;20478;-66
2022/12/04 05:22:35;;;;;;;16.55;11.20;;;;;;;;;;5069282;28;20077;-66
2022/12/04 05:25:01;;;;;;;12.20;9.85;;;;;;;;;;5072597;28;20490;-66
2022/12/04 05:27:29;;;;;;;13.45;9.32;;;;;;;;;;5072144;28;20043;-67
2022/12/04 05:29:56;;;;;;;14.00;10.20;;;;;;;;;;5072435;28;20550;-66
2022/12/04 05:32:23;;;;;;;11.68;8.32;;;;;;;;;;5072372;28;20494;-66
2022/12/04 05:34:50;;;;;;;13.10;8.65;;;;;;;;;;5072404;28;20024;-66
2022/12/04 05:37:17;;;;;;;13.82;7.75;;;;;;;;;;5072198;28;20027;-67
2022/12/04 05:39:43;;;;;;;12.57;7.93;;;;;;;;;;5080998;28;20054;-66
2022/12/04 05:42:10;;;;;;;11.35;8.48;;;;;;;;;;5077079;28;20029;-66
2022/12/04 05:44:36;;;;;;;11.27;8.30;;;;;;;;;;5072281;28;20024;-67
2022/12/04 05:47:02;;;;;;;13.48;8.60;;;;;;;;;;5072255;28;20034;-66
2022/12/04 05:49:29;;;;;;;14.25;8.98;;;;;;;;;;5072326;28;20024;-66
2022/12/04 05:51:56;;;;;;;12.80;9.23;;;;;;;;;;5072065;28;20386;-66
2022/12/04 05:54:22;;;;;;;12.90;8.55;;;;;;;;;;5072002;28;20023;-66
2022/12/04 05:56:48;;;;;;;12.02;8.45;;;;;;;;;;5072618;28;20021;-66
2022/12/04 05:59:15;;;;;;;12.57;8.15;;;;;;;;;;5071175;28;20036;-66
2022/12/04 06:01:41;;;;;;;13.27;8.60;;;;;;;;;;5072195;28;20025;-66
2022/12/04 06:04:08;;;;;;;11.60;6.90;;;;;;;;;;5072026;28;20025;-66
2022/12/04 06:06:34;;;;;;;11.75;7.20;;;;;;;;;;5072119;28;20061;-66
2022/12/04 06:09:01;;;;;;;10.88;7.60;;;;;;;;;;5071691;28;20477;-66
2022/12/04 06:11:31;;;;;;;14.90;9.55;;;;;;;;;;5071934;28;20028;-66
2022/12/04 06:13:58;;;;;;;17.77;12.47;;;;;;;;;;5071867;28;20016;-66
2022/12/04 06:16:26;;;;;;;20.23;13.27;;;;;;;;;;5071867;28;20257;-66
2022/12/04 06:18:57;;;;;;;21.35;14.00;;;;;;;;;;5071900;28;20500;-66
2022/12/04 06:21:24;;;;;;;20.77;14.95;;;;;;;;;;5078836;28;20050;-66
2022/12/04 06:23:51;;;;;;;20.25;13.70;;;;;;;;;;5091600;28;20032;-66
2022/12/04 06:26:18;;;;;;;21.55;13.68;;;;;;;;;;5092353;28;20092;-67
2022/12/04 06:28:44;;;;;;;19.05;12.73;;;;;;;;;;5091975;28;20016;-66
2022/12/04 06:31:12;;;;;;;18.90;13.52;;;;;;;;;;5091828;28;20400;-67
2022/12/04 06:33:38;;;;;;;19.92;14.43;;;;;;;;;;5091853;28;20020;-66
2022/12/04 06:36:06;;;;;;;26.63;18.15;;;;;;;;;;5091930;28;20035;-67
2022/12/04 06:38:33;;;;;;;23.38;17.10;;;;;;;;;;5091830;28;20021;-66
2022/12/04 06:40:59;;;;;;;23.77;15.68;;;;;;;;;;5086724;28;20048;-66
2022/12/04 06:43:26;;;;;;;23.48;16.45;;;;;;;;;;5071705;28;20035;-66
2022/12/04 06:45:59;;;;;;;96.32;63.00;;;;;;;;;;5071755;28;20033;-67
2022/12/04 06:48:27;;;;;;;54.40;32.63;;;;;;;;;;5071708;28;20027;-65
2022/12/04 06:50:59;;;;;;;27.45;18.40;;;;;;;;;;5071626;28;20017;-66
2022/12/04 06:53:26;;;;;;;26.20;18.58;;;;;;;;;;5071031;28;20031;-66
2022/12/04 06:55:53;;;;;;;23.98;17.20;;;;;;;;;;5071887;28;20020;-66
2022/12/04 06:58:20;;;;;;;23.85;16.05;;;;;;;;;;5071488;28;20013;-67
2022/12/04 07:00:46;;;;;;;24.65;14.43;;;;;;;;;;5071377;28;20485;-67
2022/12/04 07:03:12;;;;;;;18.90;13.40;;;;;;;;;;5071374;28;20017;-66
2022/12/04 07:05:38;;;;;;;18.80;13.38;;;;;;;;;;5071457;28;20028;-66
2022/12/04 07:08:05;;;;;;;20.77;14.90;;;;;;;;;;5071126;28;20477;-66
2022/12/04 07:10:31;;;;;;;20.55;15.35;;;;;;;;;;5071579;28;20027;-66
2022/12/04 07:12:57;;;;;;;20.10;14.40;;;;;;;;;;5075263;28;20016;-67
2022/12/04 07:15:24;;;;;;;20.63;14.60;;;;;;;;;;5074949;28;20025;-67
2022/12/04 07:17:50;;;;;;;19.75;14.55;;;;;;;;;;5074907;28;20017;-67
2022/12/04 07:20:16;;;;;;;20.25;14.18;;;;;;;;;;5074937;28;20202;-67
2022/12/04 07:22:43;;;;;;;17.65;13.68;;;;;;;;;;5092870;28;20030;-66
2022/12/04 07:25:09;;;;;;;17.92;13.02;;;;;;;;;;5095310;28;20032;-66
2022/12/04 07:27:35;;;;;;;17.25;11.45;;;;;;;;;;5095345;28;20358;-66
2022/12/04 07:30:02;;;;;;;20.90;13.82;;;;;;;;;;5094978;28;20408;-67
2022/12/04 07:32:28;;;;;;;32.30;20.02;;;;;;;;;;5095246;28;20031;-66
2022/12/04 07:34:54;;;;;;;21.45;14.68;;;;;;;;;;5094953;28;20041;-66
2022/12/04 07:37:21;;;;;;;21.80;14.05;;;;;;;;;;5094416;28;20028;-67
2022/12/04 07:39:47;;;;;;;20.25;13.18;;;;;;;;;;5094892;28;20044;-66
2022/12/04 07:42:13;;;;;;;18.98;13.00;;;;;;;;;;5078899;28;20427;-66
2022/12/04 07:44:39;;;;;;;18.92;13.15;;;;;;;;;;5074891;28;20024;-67
2022/12/04 07:47:06;;;;;;;20.10;14.68;;;;;;;;;;5074579;28;20028;-66
2022/12/04 07:49:32;;;;;;;21.15;14.55;;;;;;;;;;5074480;28;20027;-66
2022/12/04 07:51:58;;;;;;;20.80;15.05;;;;;;;;;;5074159;28;20021;-66
2022/12/04 07:54:25;;;;;;;21.30;14.25;;;;;;;;;;5074288;28;20490;-66
2022/12/04 07:56:51;;;;;;;21.90;15.70;;;;;;;;;;5074469;28;20420;-66
2022/12/04 07:59:17;;;;;;;16.55;11.25;;;;;;;;;;5074411;28;20036;-66
2022/12/04 08:01:44;;;;;;;15.23;9.45;;;;;;;;;;5074269;28;20046;-66
2022/12/04 08:04:11;;;;;;;19.38;14.95;;;;;;;;;;5056574;28;20024;-66
2022/12/04 08:06:38;;;;;;;17.85;12.00;;;;;;;;;;5073796;28;20024;-66
2022/12/04 08:09:05;;;;;;;9.98;7.15;;;;;;;;;;5074175;28;20392;-67
2022/12/04 08:11:31;;;;;;;7.75;5.43;;;;;;;;;;5074312;28;20021;-66
2022/12/04 08:13:59;;;;;;;13.80;10.77;;;;;;;;;;5074064;28;20036;-67
2022/12/04 08:16:26;;;;;;;14.55;11.20;;;;;;;;;;5074372;28;20020;-67
2022/12/04 08:18:53;;;;;;;15.30;10.98;;;;;;;;;;5055851;28;20036;-66
2022/12/04 08:21:20;;;;;;;27.55;18.88;;;;;;;;;;5079951;28;20030;-67
2022/12/04 08:23:47;;;;;;;20.70;12.95;;;;;;;;;;5093447;28;20050;-67
2022/12/04 08:26:14;;;;;;;17.77;11.52;;;;;;;;;;5094093;28;20396;-66
2022/12/04 08:28:40;;;;;;;16.42;10.48;;;;;;;;;;5092720;28;20535;-67
2022/12/04 08:31:12;;;;;;;17.30;10.48;;;;;;;;;;5093832;28;20499;-66
2022/12/04 08:33:38;;;;;;;13.88;9.18;;;;;;;;;;5093795;28;20354;-67
2022/12/04 08:36:06;;;;;;;11.25;8.07;;;;;;;;;;5093484;28;20027;-67
2022/12/04 08:38:32;;;;;;;12.90;8.63;;;;;;;;;;5093698;28;20028;-66
2022/12/04 08:41:00;;;;;;;13.95;8.23;;;;;;;;;;5088032;28;20032;-67
2022/12/04 08:43:26;;;;;;;11.80;8.07;;;;;;;;;;5073467;28;20028;-66
2022/12/04 08:45:56;;;;;;;11.48;8.18;;;;;;;;;;5073358;28;20029;-67
2022/12/04 08:48:23;;;;;;;25.40;17.42;;;;;;;;;;5073589;28;20042;-66
2022/12/04 08:50:49;;;;;;;12.02;8.65;;;;;;;;;;5073498;28;20017;-67
2022/12/04 08:53:16;;;;;;;12.50;7.80;;;;;;;;;;5073498;28;20029;-66
2022/12/04 08:55:42;;;;;;;14.82;9.15;;;;;;;;;;5073416;28;20485;-65
2022/12/04 08:58:08;;;;;;;11.82;8.77;;;;;;;;;;5073108;28;20024;-66
2022/12/04 09:00:35;;;;;;;10.70;8.45;;;;;;;;;;5073139;28;20035;-66
2022/12/04 09:03:01;;;;;;;9.73;7.07;;;;;;;;;;5072791;28;20024;-66
2022/12/04 09:05:28;;;;;;;15.00;9.07;;;;;;;;;;5072961;28;20447;-66
2022/12/04 09:07:55;;;;;;;22.70;14.43;;;;;;;;;;5072818;28;20025;-66
2022/12/04 09:10:21;;;;;;;12.63;8.38;;;;;;;;;;5073092;28;20036;-66
2022/12/04 09:12:47;;;;;;;10.75;7.45;;;;;;;;;;5072881;28;20023;-66
2022/12/04 09:15:14;;;;;;;11.05;7.80;;;;;;;;;;5072857;28;20029;-66
2022/12/04 09:17:40;;;;;;;10.45;7.18;;;;;;;;;;5072382;28;20027;-66
2022/12/04 09:20:07;;;;;;;16.20;9.10;;;;;;;;;;5072590;28;20044;-66
2022/12/04 09:22:34;;;;;;;15.00;10.75;;;;;;;;;;5072433;28;20020;-66
2022/12/04 09:25:00;;;;;;;11.75;8.85;;;;;;;;;;5072750;28;20508;-66
2022/12/04 09:27:26;;;;;;;10.68;8.68;;;;;;;;;;5072701;28;20435;-66
2022/12/04 09:29:53;;;;;;;13.23;9.02;;;;;;;;;;5072803;28;20051;-66
2022/12/04 09:32:19;;;;;;;12.80;9.48;;;;;;;;;;5072510;28;20017;-66
2022/12/04 09:34:47;;;;;;;13.68;9.40;;;;;;;;;;5072144;28;20020;-66
2022/12/04 09:37:14;;;;;;;12.88;9.25;;;;;;;;;;5072307;28;20025;-66
2022/12/04 09:39:41;;;;;;;12.65;9.23;;;;;;;;;;5072151;28;20047;-67
2022/12/04 09:42:19;;;;;;;12.05;8.90;;;;;;;;;;5066006;28;20028;-66
2022/12/04 09:44:48;;;;;;;13.13;9.13;;;;;;;;;;5072289;28;20032;-66
2022/12/04 09:47:19;;;;;;;12.68;9.35;;;;;;;;;;5062032;28;20020;-66
2022/12/04 09:49:53;;;;;;;15.75;10.43;;;;;;;;;;5092420;28;20396;-66
2022/12/04 09:52:25;;;;;;;14.90;9.88;;;;;;;;;;5092862;28;20013;-66
2022/12/04 09:54:52;;;;;;;17.77;13.07;;;;;;;;;;5092419;28;20484;-65
2022/12/04 09:57:44;;;;;;;20.52;13.77;;;;;;;;;;5092229;28;20026;-66
2022/12/04 10:00:13;;;;;;;16.92;10.27;;;;;;;;;;5088591;28;20040;-66
2022/12/04 10:02:40;;;;;;;15.73;11.38;;;;;;;;;;5091765;28;20026;-66
2022/12/04 10:05:11;;;;;;;11.55;8.40;;;;;;;;;;5092257;28;20489;-66
2022/12/04 10:07:48;;;;;;;15.55;9.55;;;;;;;;;;5092526;28;20024;-66
2022/12/04 10:10:41;;;;;;;12.75;8.18;;;;;;;;;;5092293;28;20034;-66
2022/12/04 10:13:43;;;;;;;11.93;8.48;;;;;;;;;;5088862;28;20036;-66
2022/12/04 10:16:09;;;;;;;12.50;7.78;;;;;;;;;;5009710;28;20518;-66
2022/12/04 10:18:35;;;;;;;10.63;7.22;;;;;;;;;;5010273;28;20049;-66
2022/12/04 10:21:04;;;;;;;11.27;7.20;;;;;;;;;;5010051;28;20219;-66
2022/12/04 10:23:34;;;;;;;9.93;6.65;;;;;;;;;;5010020;28;20089;-66
2022/12/04 10:26:01;;;;;;;9.82;7.22;;;;;;;;;;5009647;28;20037;-66
2022/12/04 10:28:27;;;;;;;10.73;8.02;;;;;;;;;;5010313;28;20041;-66
2022/12/04 10:30:57;;;;;;;12.73;6.70;;;;;;;;;;5009721;28;20050;-66
2022/12/04 10:33:47;;;;;;;11.63;7.85;;;;;;;;;;5010297;28;20026;-66
2022/12/04 10:36:16;;;;;;;12.50;9.20;;;;;;;;;;4988828;28;20033;-66
2022/12/04 10:38:45;;;;;;;9.75;6.80;;;;;;;;;;5009264;28;20038;-66
2022/12/04 10:41:11;;;;;;;10.10;6.53;;;;;;;;;;4990276;28;20596;-66
2022/12/04 10:43:40;;;;;;;9.18;6.20;;;;;;;;;;4990318;28;20084;-66
2022/12/04 10:46:10;;;;;;;10.02;7.00;;;;;;;;;;4991262;28;20030;-66
2022/12/04 10:48:38;;;;;;;9.95;6.45;;;;;;;;;;4994357;28;20038;-66
2022/12/04 10:51:04;;;;;;;12.02;5.63;;;;;;;;;;5067757;28;20028;-65
2022/12/04 10:53:32;;;;;;;7.10;4.97;;;;;;;;;;5075395;28;20032;-65
2022/12/04 10:56:28;;;;;;;11.25;5.82;;;;;;;;;;5075386;28;20027;-65
2022/12/04 10:59:04;;;;;;;8.95;5.63;;;;;;;;;;5058095;28;20059;-65
2022/12/04 11:01:32;;;;;;;12.15;5.15;;;;;;;;;;5075665;28;20039;-66
2022/12/04 11:04:05;;;;;;;8.02;5.32;;;;;;;;;;5075770;28;20031;-66
2022/12/04 11:06:32;;;;;;;6.38;4.00;;;;;;;;;;5075292;28;20384;-66
2022/12/04 11:08:58;;;;;;;7.20;4.60;;;;;;;;;;5075599;28;20024;-66
2022/12/04 11:11:27;;;;;;;5.72;3.90;;;;;;;;;;5075245;28;20028;-66
2022/12/04 11:14:16;;;;;;;7.05;4.50;;;;;;;;;;5074868;28;20029;-66
2022/12/04 11:16:43;;;;;;;5.88;3.97;;;;;;;;;;5075045;28;20496;-66
2022/12/04 11:19:20;;;;;;;6.68;3.83;;;;;;;;;;5075176;28;20085;-66
2022/12/04 11:21:47;;;;;;;15.57;8.77;;;;;;;;;;5074637;28;20024;-66
2022/12/04 11:24:33;;;;;;;12.25;7.60;;;;;;;;;;5075111;28;20523;-66
2022/12/04 11:27:00;;;;;;;12.05;6.40;;;;;;;;;;5074655;28;20035;-66
2022/12/04 11:29:36;;;;;;;10.65;7.07;;;;;;;;;;5074540;28;20039;-66
2022/12/04 11:32:03;;;;;;;12.20;7.63;;;;;;;;;;5074710;28;20030;-66
2022/12/04 11:34:34;;;;;;;14.32;8.38;;;;;;;;;;5056912;28;20032;-66
2022/12/04 11:37:01;;;;;;;6.40;4.55;;;;;;;;;;5074877;28;20027;-66
2022/12/04 11:39:27;;;;;;;8.23;5.22;;;;;;;;;;5081133;28;20040;-66
2022/12/04 11:42:01;;;;;;;7.10;4.95;;;;;;;;;;5081680;28;20482;-66
2022/12/04 11:44:29;;;;;;;5.50;4.00;;;;;;;;;;5074175;28;20043;-66
2022/12/04 11:46:57;;;;;;;6.15;3.97;;;;;;;;;;5074621;28;20040;-66
2022/12/04 11:49:24;;;;;;;5.95;4.03;;;;;;;;;;5074607;28;20029;-66
2022/12/04 11:51:59;;;;;;;8.32;4.90;;;;;;;;;;5074746;28;20024;-66
2022/12/04 11:54:42;;;;;;;13.07;7.72;;;;;;;;;;5074300;28;20030;-66
2022/12/04 11:57:32;;;;;;;10.20;6.78;;;;;;;;;;5073943;28;20032;-66
2022/12/04 11:59:58;;;;;;;6.97;5.10;;;;;;;;;;5062715;28;20051;-66
2022/12/04 12:02:40;;;;;;;7.15;4.13;;;;;;;;;;5074432;28;20054;-66
2022/12/04 12:05:12;;;;;;;4.28;2.90;;;;;;;;;;5074280;28;20034;-66
2022/12/04 12:07:57;;;;;;;5.40;3.38;;;;;;;;;;5074270;28;20021;-66
2022/12/04 12:10:30;;;;;;;4.90;3.20;;;;;;;;;;5074158;28;20363;-66
2022/12/04 12:13:06;;;;;;;4.95;3.13;;;;;;;;;;5073995;28;20021;-66
2022/12/04 12:15:33;;;;;;;3.47;2.42;;;;;;;;;;5073910;28;20027;-66
2022/12/04 12:18:02;;;;;;;3.58;2.50;;;;;;;;;;5056056;28;20037;-66
2022/12/04 12:20:55;;;;;;;6.47;3.65;;;;;;;;;;5055875;28;20451;-66
2022/12/04 12:23:39;;;;;;;5.18;3.25;;;;;;;;;;5028288;28;20044;-66
2022/12/04 12:26:10;;;;;;;5.25;3.20;;;;;;;;;;5031343;28;20076;-66
2022/12/04 12:29:00;;;;;;;5.22;3.45;;;;;;;;;;5015339;28;20041;-66
2022/12/04 12:31:38;;;;;;;5.45;3.35;;;;;;;;;;5031592;28;20534;-66
2022/12/04 12:34:10;;;;;;;5.85;3.90;;;;;;;;;;5015037;28;20088;-66
2022/12/04 12:36:41;;;;;;;9.00;3.72;;;;;;;;;;5031519;28;20052;-66
2022/12/04 12:39:14;;;;;;;7.38;3.90;;;;;;;;;;5031011;28;20045;-66
2022/12/04 12:41:46;;;;;;;7.72;3.55;;;;;;;;;;5011013;28;20116;-66
2022/12/04 12:44:19;;;;;;;6.03;3.40;;;;;;;;;;5011802;28;20064;-66
2022/12/04 12:46:52;;;;;;;6.88;3.42;;;;;;;;;;5011519;28;20041;-66
2022/12/04 12:49:35;;;;;;;4.07;2.70;;;;;;;;;;5011363;28;20034;-66
2022/12/04 12:52:04;;;;;;;4.57;3.17;;;;;;;;;;4995070;28;20096;-66
2022/12/04 12:54:31;;;;;;;3.88;2.95;;;;;;;;;;5011317;28;20048;-66
2022/12/04 12:57:02;;;;;;;3.70;2.42;;;;;;;;;;5010862;28;20426;-66
2022/12/04 12:59:31;;;;;;;3.95;2.00;;;;;;;;;;5025048;28;20056;-66
2022/12/04 13:02:12;;;;;;;4.72;2.25;;;;;;;;;;5072815;28;20047;-66
2022/12/04 13:04:43;;;;;;;4.00;2.50;;;;;;;;;;5073004;28;20029;-67
2022/12/04 13:07:19;;;;;;;4.68;2.58;;;;;;;;;;5073174;28;20043;-67
2022/12/04 13:10:04;;;;;;;2.20;1.40;;;;;;;;;;5072323;28;20077;-66
2022/12/04 13:12:35;;;;;;;4.97;2.50;;;;;;;;;;5072854;28;20381;-66
2022/12/04 13:15:01;;;;;;;3.73;2.57;;;;;;;;;;5071514;28;20024;-66
2022/12/04 13:17:33;;;;;;;4.72;2.75;;;;;;;;;;5072983;28;20277;-66
2022/12/04 13:20:02;;;;;;;4.95;3.15;;;;;;;;;;5072753;28;20040;-66
2022/12/04 13:22:28;;;;;;;3.67;2.15;;;;;;;;;;5088689;28;20028;-66
2022/12/04 13:24:54;;;;;;;1.63;1.20;;;;;;;;;;5092834;28;20026;-66
2022/12/04 13:27:39;;;;;;;3.08;1.92;;;;;;;;;;5092854;28;20518;-66
2022/12/04 13:30:08;;;;;;;3.17;2.22;;;;;;;;;;5092854;28;20484;-66
2022/12/04 13:32:53;;;;;;;1.45;1.00;;;;;;;;;;5093029;28;20392;-66
2022/12/04 13:35:20;;;;;;;2.90;1.80;;;;;;;;;;5092688;28;20031;-66
2022/12/04 13:37:52;;;;;;;2.08;1.70;;;;;;;;;;5092689;28;20028;-66
2022/12/04 13:40:25;;;;;;;1.25;0.93;;;;;;;;;;5074294;28;20051;-66
2022/12/04 13:42:51;;;;;;;1.65;1.30;;;;;;;;;;5092897;28;20076;-66
2022/12/04 13:45:26;;;;;;;1.67;1.10;;;;;;;;;;5092694;28;20521;-66
2022/12/04 13:47:59;;;;;;;1.38;0.90;;;;;;;;;;5092615;28;20028;-66
2022/12/04 13:50:28;;;;;;;2.00;1.30;;;;;;;;;;5092799;28;20027;-66
2022/12/04 13:52:55;;;;;;;3.15;1.90;;;;;;;;;;5092128;28;20012;-66
2022/12/04 13:55:26;;;;;;;3.33;2.05;;;;;;;;;;5092320;28;20497;-66
2022/12/04 13:57:56;;;;;;;2.75;1.50;;;;;;;;;;5092485;28;20022;-66
2022/12/04 14:00:26;;;;;;;3.45;1.40;;;;;;;;;;5092320;28;20040;-66
2022/12/04 14:02:54;;;;;;;3.15;1.45;;;;;;;;;;5074174;28;20028;-66
2022/12/04 14:05:32;;;;;;;4.32;2.03;;;;;;;;;;5092173;28;20032;-67
2022/12/04 14:08:03;;;;;;;6.53;1.92;;;;;;;;;;5092185;28;20027;-66
2022/12/04 14:10:29;;;;;;;;;;;;;;;;;;5092849;28;20024;-66
2022/12/04 14:13:02;;;;;;;1.75;1.30;;;;;;;;;;5092611;28;19904;-66
2022/12/04 14:15:30;;;;;;;3.33;1.73;;;;;;;;;;5091950;28;20032;-66
2022/12/04 14:18:02;;;;;;;1.75;1.00;;;;;;;;;;5092065;28;20035;-66
2022/12/04 14:20:30;;;;;;;5.40;1.48;;;;;;;;;;5091042;28;20047;-66
2022/12/04 14:23:07;;;;;;;1.83;1.33;;;;;;;;;;5091748;28;20030;-66
2022/12/04 14:25:36;;;;;;;2.30;1.80;;;;;;;;;;5091977;28;20032;-66
2022/12/04 14:28:21;;;;;;;3.13;1.90;;;;;;;;;;5092331;28;20016;-66
2022/12/04 14:30:58;;;;;;;3.90;2.35;;;;;;;;;;5091987;28;20026;-66
2022/12/04 14:33:27;;;;;;;3.55;2.47;;;;;;;;;;5092002;28;20409;-66
2022/12/04 14:36:02;;;;;;;5.68;3.78;;;;;;;;;;5091919;28;20026;-66
2022/12/04 14:38:28;;;;;;;10.88;5.60;;;;;;;;;;5091408;28;20396;-66
2022/12/04 14:40:56;;;;;;;9.88;6.13;;;;;;;;;;5086826;28;20413;-66
2022/12/04 14:43:25;;;;;;;13.52;6.88;;;;;;;;;;5071612;28;20036;-67
2022/12/04 14:45:56;;;;;;;12.68;8.20;;;;;;;;;;5071831;28;20029;-66
2022/12/04 14:48:41;;;;;;;16.33;7.90;;;;;;;;;;5071571;28;20021;-67
2022/12/04 14:51:18;;;;;;;7.93;4.63;;;;;;;;;;5071320;28;20017;-66
2022/12/04 14:54:03;;;;;;;7.15;4.70;;;;;;;;;;5071605;28;20363;-66